Time;durP1;ratioP1;P1;durP2;ratioP2;P2;SDS_P1;SDS_P2;PMS_P1;PMS_P2;Temp;Humidity;BMP_temperature;BMP_pressure;BME280_temperature;BME280_humidity;BME280_pressure;Samples;Min_cycle;Max_cycle;Signal;HPM_P1;HPM_P2
2021/07/07 00:02:06;;;;;;;2.25;1.13;;;9.90;99.90;;;;;;5057123;28;20384;-84
2021/07/07 00:04:33;;;;;;;1.38;1.10;;;10.00;99.90;;;;;;5056264;28;20382;-83
2021/07/07 00:07:03;;;;;;;1.35;1.10;;;10.20;99.90;;;;;;5069768;28;20373;-84
2021/07/07 00:09:30;;;;;;;2.47;1.20;;;10.20;99.90;;;;;;5055026;28;20459;-82
2021/07/07 00:11:57;;;;;;;2.17;1.17;;;10.30;99.90;;;;;;5055919;28;20397;-83
2021/07/07 00:14:24;;;;;;;2.47;1.20;;;10.40;99.90;;;;;;5056761;28;20448;-83
2021/07/07 00:16:52;;;;;;;3.50;1.10;;;10.60;99.90;;;;;;5050757;28;20395;-84
2021/07/07 00:19:19;;;;;;;3.13;1.20;;;10.70;99.90;;;;;;5051824;28;20391;-85
2021/07/07 00:21:46;;;;;;;2.10;0.98;;;10.70;99.90;;;;;;5051794;28;20522;-85
2021/07/07 00:24:13;;;;;;;2.63;1.60;;;10.90;99.90;;;;;;5048083;28;20416;-85
2021/07/07 00:26:40;;;;;;;2.95;1.90;;;11.20;99.90;;;;;;5064800;28;20395;-84
2021/07/07 00:29:07;;;;;;;7.15;1.88;;;11.40;99.90;;;;;;5047276;28;20395;-85
2021/07/07 00:31:34;;;;;;;2.13;1.47;;;11.60;99.90;;;;;;5053294;28;20456;-84
2021/07/07 00:34:01;;;;;;;1.57;1.43;;;11.50;99.90;;;;;;5068261;28;20406;-83
2021/07/07 00:36:28;;;;;;;1.85;1.40;;;11.20;99.90;;;;;;5052727;28;20387;-84
2021/07/07 00:38:55;;;;;;;5.38;1.70;;;11.00;99.90;;;;;;5048707;28;20392;-84
2021/07/07 00:41:22;;;;;;;2.38;1.80;;;10.90;99.90;;;;;;5050064;28;20399;-84
2021/07/07 00:43:49;;;;;;;4.07;1.88;;;10.80;99.90;;;;;;5057866;28;20938;-85
2021/07/07 00:46:16;;;;;;;2.20;2.00;;;10.80;99.90;;;;;;5051390;28;20478;-85
2021/07/07 00:48:45;;;;;;;2.90;1.90;;;10.90;99.90;;;;;;5065612;28;20394;-85
2021/07/07 00:51:14;;;;;;;2.72;2.03;;;11.00;99.90;;;;;;5065797;28;20397;-84
2021/07/07 00:53:43;;;;;;;3.30;2.40;;;11.00;99.90;;;;;;5054936;28;20392;-84
2021/07/07 00:56:13;;;;;;;5.35;2.40;;;11.10;99.90;;;;;;5056404;28;20387;-85
2021/07/07 00:58:41;;;;;;;2.47;2.28;;;11.00;99.90;;;;;;5055648;28;20477;-84
2021/07/07 01:01:08;;;;;;;3.80;2.23;;;11.10;99.90;;;;;;5053268;28;20479;-82
2021/07/07 01:03:36;;;;;;;3.05;2.30;;;11.00;99.90;;;;;;5070872;28;20473;-83
2021/07/07 01:06:03;;;;;;;3.97;2.50;;;11.00;99.90;;;;;;5060728;28;20453;-83
2021/07/07 01:08:30;;;;;;;5.80;2.17;;;10.90;99.90;;;;;;5061106;28;20430;-83
2021/07/07 01:10:57;;;;;;;7.60;2.70;;;10.80;99.90;;;;;;5058561;28;20430;-84
2021/07/07 01:13:24;;;;;;;3.97;2.20;;;10.90;99.90;;;;;;5063571;28;20402;-83
2021/07/07 01:15:54;;;;;;;3.22;2.08;;;11.00;99.90;;;;;;5066468;28;20430;-83
2021/07/07 01:18:22;;;;;;;6.50;1.87;;;11.10;99.90;;;;;;5074803;28;20420;-83
2021/07/07 01:20:49;;;;;;;4.22;1.85;;;11.20;99.90;;;;;;5072885;28;20453;-84
2021/07/07 01:23:16;;;;;;;3.17;1.85;;;11.30;99.90;;;;;;5076431;28;20411;-83
2021/07/07 01:25:44;;;;;;;3.42;1.52;;;11.40;99.90;;;;;;5088020;28;20387;-83
2021/07/07 01:28:11;;;;;;;3.40;1.40;;;11.60;99.90;;;;;;5073547;28;20363;-83
2021/07/07 01:30:38;;;;;;;2.10;1.30;;;11.60;99.90;;;;;;5072521;28;20370;-85
2021/07/07 01:33:05;;;;;;;1.90;1.52;;;11.70;99.90;;;;;;5071065;28;20362;-82
2021/07/07 01:35:32;;;;;;;2.88;1.25;;;11.70;99.90;;;;;;5077767;28;20371;-82
2021/07/07 01:37:59;;;;;;;2.38;1.40;;;11.70;99.90;;;;;;5089748;28;20441;-81
2021/07/07 01:40:27;;;;;;;1.88;1.10;;;11.80;99.90;;;;;;5091108;28;20697;-81
2021/07/07 01:42:55;;;;;;;3.92;1.50;;;11.90;99.90;;;;;;5069211;28;20411;-83
2021/07/07 01:45:23;;;;;;;2.55;1.35;;;11.90;99.90;;;;;;5055015;28;20397;-83
2021/07/07 01:47:51;;;;;;;4.05;1.45;;;12.00;99.90;;;;;;5065211;28;20473;-84
2021/07/07 01:50:20;;;;;;;1.70;1.30;;;12.00;99.90;;;;;;5050739;28;20388;-82
2021/07/07 01:52:47;;;;;;;2.08;1.65;;;11.90;99.90;;;;;;5053912;28;20517;-81
2021/07/07 01:55:15;;;;;;;2.15;1.77;;;12.00;99.90;;;;;;5057939;28;20481;-82
2021/07/07 01:57:45;;;;;;;3.67;1.67;;;12.10;99.90;;;;;;5061745;28;20450;-80
2021/07/07 02:00:13;;;;;;;4.82;2.00;;;12.20;99.90;;;;;;5052430;28;20400;-80
2021/07/07 02:02:41;;;;;;;1.35;1.15;;;12.20;99.90;;;;;;5051533;28;20428;-79
2021/07/07 02:05:11;;;;;;;3.40;1.60;;;12.30;99.90;;;;;;5056568;28;20737;-79
2021/07/07 02:07:38;;;;;;;5.07;1.85;;;12.30;99.90;;;;;;5060613;28;20384;-79
2021/07/07 02:10:09;;;;;;;3.53;1.52;;;12.30;99.90;;;;;;5063279;28;20821;-80
2021/07/07 02:12:36;;;;;;;4.93;1.60;;;12.50;99.90;;;;;;5062527;28;20438;-80
2021/07/07 02:15:14;;;;;;;2.75;1.60;;;12.60;99.90;;;;;;5051238;28;20407;-79
2021/07/07 02:17:42;;;;;;;5.72;1.80;;;12.60;99.90;;;;;;5058723;28;20399;-79
2021/07/07 02:20:11;;;;;;;3.15;1.70;;;12.60;99.90;;;;;;5059739;28;20398;-78
2021/07/07 02:22:40;;;;;;;5.22;2.20;;;12.60;99.90;;;;;;5071571;28;20410;-79
2021/07/07 02:25:29;;;;;;;3.55;1.65;;;12.70;99.90;;;;;;5074952;28;20890;-79
2021/07/07 02:27:58;;;;;;;2.38;1.65;;;12.70;99.90;;;;;;5060856;28;20860;-80
2021/07/07 02:30:30;;;;;;;2.03;1.63;;;12.70;99.90;;;;;;5057437;28;20752;-79
2021/07/07 02:32:58;;;;;;;2.60;1.20;;;12.90;99.90;;;;;;5052305;28;20790;-80
2021/07/07 02:35:28;;;;;;;0.97;0.70;;;13.00;99.90;;;;;;5050905;28;20501;-80
2021/07/07 02:37:57;;;;;;;1.13;0.80;;;12.90;99.90;;;;;;5053884;28;20396;-81
2021/07/07 02:40:27;;;;;;;1.73;0.63;;;12.90;99.90;;;;;;5054435;28;20459;-80
2021/07/07 02:42:55;;;;;;;1.48;0.88;;;13.00;99.90;;;;;;5063547;28;20434;-80
2021/07/07 02:45:23;;;;;;;2.00;0.70;;;13.10;99.90;;;;;;5061232;28;20391;-80
2021/07/07 02:47:50;;;;;;;2.13;0.60;;;13.10;99.90;;;;;;5050724;28;20388;-79
2021/07/07 02:50:19;;;;;;;3.22;1.00;;;13.10;99.90;;;;;;5049360;28;20386;-80
2021/07/07 02:52:48;;;;;;;2.13;0.90;;;13.10;99.90;;;;;;5048605;28;20794;-79
2021/07/07 02:55:21;;;;;;;2.15;0.73;;;13.10;99.90;;;;;;5048509;28;20387;-80
2021/07/07 02:58:05;;;;;;;1.88;0.80;;;13.20;99.90;;;;;;5066346;28;20379;-80
2021/07/07 03:00:38;;;;;;;4.05;1.00;;;13.20;99.90;;;;;;5069962;28;20729;-79
2021/07/07 03:03:16;;;;;;;2.13;0.88;;;13.30;99.90;;;;;;5054692;28;20407;-81
2021/07/07 03:05:55;;;;;;;1.77;0.80;;;13.40;99.90;;;;;;5049857;28;20414;-80
2021/07/07 03:08:25;;;;;;;2.60;1.10;;;13.40;99.90;;;;;;5068163;28;20927;-81
2021/07/07 03:10:53;;;;;;;2.60;1.25;;;13.40;99.90;;;;;;5069234;28;20410;-80
2021/07/07 03:13:21;;;;;;;3.75;1.40;;;13.40;99.90;;;;;;5068473;28;20398;-81
2021/07/07 03:15:49;;;;;;;2.25;1.00;;;13.30;99.90;;;;;;5068293;28;20366;-80
2021/07/07 03:18:19;;;;;;;1.95;1.05;;;13.30;99.90;;;;;;5069066;28;20378;-81
2021/07/07 03:20:50;;;;;;;3.13;1.15;;;13.30;99.90;;;;;;5087964;28;20376;-80
2021/07/07 03:23:19;;;;;;;1.48;0.85;;;13.30;99.90;;;;;;5068106;28;20406;-81
2021/07/07 03:25:47;;;;;;;3.65;0.90;;;13.30;99.90;;;;;;5069066;28;20930;-80
2021/07/07 03:28:15;;;;;;;2.15;1.10;;;13.50;99.90;;;;;;5069073;28;20389;-81
2021/07/07 03:30:42;;;;;;;2.40;1.33;;;13.60;99.90;;;;;;5054509;28;20391;-80
2021/07/07 03:33:10;;;;;;;2.35;1.17;;;13.50;99.90;;;;;;5048919;28;20447;-80
2021/07/07 03:35:37;;;;;;;1.70;1.10;;;13.50;99.90;;;;;;5049480;28;20824;-81
2021/07/07 03:38:05;;;;;;;1.73;1.13;;;13.50;99.90;;;;;;5049406;28;20429;-80
2021/07/07 03:40:34;;;;;;;1.83;1.05;;;13.40;99.90;;;;;;5054637;28;20389;-81
2021/07/07 03:43:01;;;;;;;3.00;1.00;;;13.40;99.90;;;;;;5070829;28;20431;-80
2021/07/07 03:45:31;;;;;;;2.03;1.00;;;13.50;99.90;;;;;;5077173;28;20592;-80
2021/07/07 03:47:59;;;;;;;1.55;1.08;;;13.60;99.90;;;;;;5055936;28;20383;-81
2021/07/07 03:50:26;;;;;;;4.60;1.10;;;13.60;99.90;;;;;;5053029;28;20391;-80
2021/07/07 03:52:54;;;;;;;4.40;1.00;;;13.50;99.90;;;;;;5062841;28;20847;-80
2021/07/07 03:55:24;;;;;;;2.27;1.00;;;13.50;99.90;;;;;;5056722;28;20535;-80
2021/07/07 03:57:51;;;;;;;2.20;0.90;;;13.50;99.90;;;;;;5056573;28;20502;-79
2021/07/07 04:00:23;;;;;;;3.58;1.00;;;13.40;99.90;;;;;;5059979;28;20402;-79
2021/07/07 04:02:50;;;;;;;3.92;1.08;;;13.40;99.90;;;;;;5049990;28;20438;-80
2021/07/07 04:05:18;;;;;;;2.90;1.08;;;13.30;99.90;;;;;;5049604;28;20917;-80
2021/07/07 04:07:45;;;;;;;1.80;1.13;;;13.20;99.90;;;;;;5048146;28;20837;-80
2021/07/07 04:10:13;;;;;;;2.60;1.10;;;13.10;99.90;;;;;;5059273;28;20417;-80
2021/07/07 04:12:42;;;;;;;1.80;0.90;;;13.20;99.90;;;;;;5061233;28;20378;-80
2021/07/07 04:15:14;;;;;;;2.20;0.90;;;13.40;99.90;;;;;;5048224;28;20399;-80
2021/07/07 04:17:41;;;;;;;3.45;1.15;;;13.40;99.90;;;;;;5049342;28;20445;-80
2021/07/07 04:20:11;;;;;;;0.88;0.88;;;13.30;99.90;;;;;;5054505;28;20388;-80
2021/07/07 04:22:38;;;;;;;5.55;1.05;;;13.20;99.90;;;;;;5050259;28;20405;-80
2021/07/07 04:25:08;;;;;;;4.22;1.30;;;13.20;99.90;;;;;;5060547;28;20882;-80
2021/07/07 04:27:36;;;;;;;3.10;0.80;;;13.10;99.90;;;;;;5053669;28;20483;-81
2021/07/07 04:30:08;;;;;;;3.35;0.98;;;13.10;99.90;;;;;;5065531;28;20959;-80
2021/07/07 04:32:36;;;;;;;2.60;1.02;;;13.00;99.90;;;;;;5054450;28;20379;-80
2021/07/07 04:35:03;;;;;;;2.22;1.00;;;12.90;99.90;;;;;;5071742;28;20386;-80
2021/07/07 04:37:30;;;;;;;4.15;1.10;;;13.00;99.90;;;;;;5056649;28;20391;-80
2021/07/07 04:39:58;;;;;;;4.55;1.08;;;13.00;99.90;;;;;;5065390;28;20415;-80
2021/07/07 04:42:26;;;;;;;2.08;1.05;;;13.00;99.90;;;;;;5058269;28;20926;-79
2021/07/07 04:44:54;;;;;;;3.80;1.00;;;13.00;99.90;;;;;;5060093;28;20488;-80
2021/07/07 04:47:21;;;;;;;2.20;0.90;;;13.00;99.90;;;;;;5055317;28;20484;-81
2021/07/07 04:49:48;;;;;;;3.72;0.73;;;13.00;99.90;;;;;;5059417;28;20392;-80
2021/07/07 04:52:15;;;;;;;2.95;0.85;;;12.90;99.90;;;;;;5053584;28;20387;-81
2021/07/07 04:54:42;;;;;;;2.42;0.60;;;12.90;99.90;;;;;;5053330;28;20515;-81
2021/07/07 04:57:09;;;;;;;1.53;0.67;;;13.00;99.90;;;;;;5054487;28;20479;-81
2021/07/07 04:59:36;;;;;;;3.07;0.90;;;13.00;99.90;;;;;;5063063;28;20396;-81
2021/07/07 05:02:03;;;;;;;2.08;1.13;;;12.90;99.90;;;;;;5052975;28;21052;-82
2021/07/07 05:04:30;;;;;;;2.67;1.23;;;12.90;99.90;;;;;;5058715;28;20412;-81
2021/07/07 05:06:57;;;;;;;2.17;0.90;;;12.80;99.90;;;;;;5053809;28;20487;-80
2021/07/07 05:09:24;;;;;;;2.83;1.20;;;12.90;99.90;;;;;;5061419;28;20402;-80
2021/07/07 05:11:52;;;;;;;1.48;0.75;;;12.90;99.90;;;;;;5077654;28;20409;-80
2021/07/07 05:14:19;;;;;;;5.80;1.00;;;12.90;99.90;;;;;;5071771;28;20395;-81
2021/07/07 05:16:47;;;;;;;3.33;0.93;;;12.80;99.90;;;;;;5064036;28;20401;-80
2021/07/07 05:19:14;;;;;;;2.07;0.70;;;12.80;99.90;;;;;;5051516;28;20539;-80
2021/07/07 05:21:42;;;;;;;3.88;0.82;;;12.90;99.90;;;;;;5055966;28;20876;-81
2021/07/07 05:24:09;;;;;;;1.80;1.20;;;12.80;99.90;;;;;;5071101;28;20413;-81
2021/07/07 05:26:36;;;;;;;2.53;0.80;;;12.80;99.90;;;;;;5065364;28;20908;-81
2021/07/07 05:29:03;;;;;;;2.42;1.00;;;12.80;99.90;;;;;;5065829;28;20747;-81
2021/07/07 05:31:30;;;;;;;1.70;0.83;;;12.80;99.90;;;;;;5059550;28;20747;-81
2021/07/07 05:33:57;;;;;;;2.40;1.00;;;12.90;99.90;;;;;;5071206;28;20469;-80
2021/07/07 05:36:24;;;;;;;3.30;1.10;;;12.90;99.90;;;;;;5052054;28;20379;-80
2021/07/07 05:38:51;;;;;;;2.13;0.88;;;12.90;99.90;;;;;;5071106;28;20374;-80
2021/07/07 05:41:18;;;;;;;2.65;0.75;;;12.90;99.90;;;;;;5070901;28;20358;-80
2021/07/07 05:43:46;;;;;;;3.30;1.17;;;12.90;99.90;;;;;;5065370;28;20403;-80
2021/07/07 05:46:13;;;;;;;2.85;0.90;;;12.90;99.90;;;;;;5060941;28;20883;-78
2021/07/07 05:48:40;;;;;;;4.22;1.08;;;12.80;99.90;;;;;;5063369;28;20446;-80
2021/07/07 05:51:07;;;;;;;2.22;0.90;;;12.70;99.90;;;;;;5050686;28;20475;-80
2021/07/07 05:53:34;;;;;;;3.20;0.90;;;12.60;99.90;;;;;;5067764;28;20382;-80
2021/07/07 05:56:01;;;;;;;3.72;1.10;;;12.60;99.90;;;;;;5058201;28;20446;-80
2021/07/07 05:58:28;;;;;;;1.60;0.80;;;12.60;99.90;;;;;;5051800;28;20394;-80
2021/07/07 06:00:55;;;;;;;2.20;1.40;;;12.50;99.90;;;;;;5050489;28;20459;-80
2021/07/07 06:03:22;;;;;;;1.75;1.17;;;12.40;99.90;;;;;;5050638;28;20407;-80
2021/07/07 06:05:49;;;;;;;1.80;1.10;;;12.20;99.90;;;;;;5051149;28;20414;-79
2021/07/07 06:08:16;;;;;;;3.90;1.38;;;12.00;99.90;;;;;;5064113;28;20433;-79
2021/07/07 06:10:45;;;;;;;1.60;1.20;;;11.90;99.90;;;;;;5050810;28;20491;-80
2021/07/07 06:13:13;;;;;;;1.52;0.95;;;11.70;99.90;;;;;;5050416;28;20742;-80
2021/07/07 06:15:40;;;;;;;1.75;1.08;;;11.60;99.90;;;;;;5050554;28;20400;-80
2021/07/07 06:18:07;;;;;;;1.90;1.70;;;11.50;99.90;;;;;;5050423;28;20859;-79
2021/07/07 06:20:35;;;;;;;6.50;5.55;;;11.40;99.90;;;;;;5049739;28;20419;-80
2021/07/07 06:23:03;;;;;;;6.38;4.10;;;11.30;99.90;;;;;;5056415;28;20397;-81
2021/07/07 06:25:30;;;;;;;4.57;2.40;;;11.20;99.90;;;;;;5058100;28;20397;-80
2021/07/07 06:27:57;;;;;;;6.30;1.90;;;11.10;99.90;;;;;;5059040;28;20425;-80
2021/07/07 06:30:25;;;;;;;4.03;2.72;;;11.10;99.90;;;;;;5061529;28;20762;-81
2021/07/07 06:32:54;;;;;;;3.78;2.30;;;11.00;99.90;;;;;;5062526;28;20411;-80
2021/07/07 06:35:22;;;;;;;3.58;2.08;;;10.90;99.90;;;;;;5059242;28;20473;-82
2021/07/07 06:37:51;;;;;;;4.82;2.22;;;10.80;99.90;;;;;;5055227;28;20400;-81
2021/07/07 06:40:20;;;;;;;4.97;3.40;;;10.80;99.90;;;;;;5052986;28;20380;-81
2021/07/07 06:42:47;;;;;;;6.20;3.05;;;10.70;99.90;;;;;;5052751;28;20407;-81
2021/07/07 06:45:15;;;;;;;6.57;3.92;;;10.60;99.90;;;;;;5059085;28;20915;-80
2021/07/07 06:47:42;;;;;;;4.03;2.85;;;10.60;99.90;;;;;;5056371;28;20435;-80
2021/07/07 06:50:12;;;;;;;3.97;2.33;;;10.50;99.90;;;;;;5049922;28;20376;-81
2021/07/07 06:52:39;;;;;;;4.28;2.60;;;10.30;99.90;;;;;;5054896;28;20903;-81
2021/07/07 06:55:08;;;;;;;5.70;2.75;;;10.30;99.90;;;;;;5053401;28;20411;-80
2021/07/07 06:57:36;;;;;;;5.47;2.33;;;10.20;99.90;;;;;;5055788;28;20399;-80
2021/07/07 07:00:12;;;;;;;4.22;2.67;;;10.20;99.90;;;;;;5060802;28;20479;-80
2021/07/07 07:02:40;;;;;;;6.35;3.22;;;10.10;99.90;;;;;;5064337;28;20397;-80
2021/07/07 07:05:09;;;;;;;4.50;3.30;;;10.00;99.90;;;;;;5058130;28;20391;-80
2021/07/07 07:07:36;;;;;;;7.40;5.10;;;10.00;99.90;;;;;;5053863;28;20372;-80
2021/07/07 07:10:05;;;;;;;6.72;4.63;;;9.90;99.90;;;;;;5063590;28;20386;-79
2021/07/07 07:12:32;;;;;;;9.10;5.05;;;9.90;99.90;;;;;;5049023;28;20459;-80
2021/07/07 07:14:59;;;;;;;7.63;5.30;;;9.90;99.90;;;;;;5049002;28;20811;-80
2021/07/07 07:17:26;;;;;;;7.45;4.28;;;9.80;99.90;;;;;;5063696;28;20735;-80
2021/07/07 07:19:53;;;;;;;3.45;2.50;;;9.70;99.90;;;;;;5050084;28;20480;-81
2021/07/07 07:22:20;;;;;;;3.67;2.35;;;9.70;99.90;;;;;;5051686;28;20391;-80
2021/07/07 07:24:50;;;;;;;5.33;2.90;;;9.70;99.90;;;;;;5053322;28;20404;-81
2021/07/07 07:27:17;;;;;;;3.75;2.03;;;9.60;99.90;;;;;;5065400;28;20415;-81
2021/07/07 07:29:46;;;;;;;6.28;2.38;;;9.60;99.90;;;;;;5065366;28;20379;-81
2021/07/07 07:32:13;;;;;;;2.50;1.92;;;9.50;99.90;;;;;;5065477;28;20399;-80
2021/07/07 07:34:40;;;;;;;3.97;2.10;;;9.50;99.90;;;;;;5071440;28;20415;-80
2021/07/07 07:37:09;;;;;;;3.65;2.15;;;9.40;99.90;;;;;;5055900;28;20393;-80
2021/07/07 07:39:41;;;;;;;15.82;9.57;;;9.40;99.90;;;;;;5054427;28;20413;-80
2021/07/07 07:42:13;;;;;;;22.55;13.68;;;9.40;99.90;;;;;;5065738;28;20924;-79
2021/07/07 07:44:40;;;;;;;40.67;21.50;;;9.40;99.90;;;;;;5049126;28;20396;-79
2021/07/07 07:47:08;;;;;;;28.13;14.32;;;9.40;99.90;;;;;;5049605;28;20387;-80
2021/07/07 07:49:35;;;;;;;36.45;18.20;;;9.40;99.90;;;;;;5056309;28;20389;-81
2021/07/07 07:52:02;;;;;;;31.58;17.63;;;9.30;99.90;;;;;;5051939;28;20499;-82
2021/07/07 07:54:29;;;;;;;45.55;20.65;;;9.30;99.90;;;;;;5049019;28;20399;-82
2021/07/07 07:56:56;;;;;;;60.70;24.30;;;9.20;99.90;;;;;;5052109;28;20398;-82
2021/07/07 07:59:26;;;;;;;69.05;26.17;;;9.20;99.90;;;;;;5062143;28;20463;-80
2021/07/07 08:01:53;;;;;;;49.38;17.50;;;9.20;99.90;;;;;;5056101;28;20394;-80
2021/07/07 08:04:20;;;;;;;46.22;16.40;;;9.20;99.90;;;;;;5068468;28;20441;-80
2021/07/07 08:06:47;;;;;;;35.05;12.90;;;9.20;99.90;;;;;;5059888;28;20385;-80
2021/07/07 08:09:14;;;;;;;37.20;12.95;;;9.20;99.90;;;;;;5061997;28;20478;-80
2021/07/07 08:11:43;;;;;;;32.20;12.37;;;9.10;99.90;;;;;;5057582;28;20436;-80
2021/07/07 08:14:11;;;;;;;25.15;11.27;;;9.00;99.90;;;;;;5058542;28;20445;-79
2021/07/07 08:16:38;;;;;;;16.15;8.93;;;8.90;99.90;;;;;;5060247;28;20425;-79
2021/07/07 08:19:05;;;;;;;12.00;6.32;;;8.90;99.90;;;;;;5053435;28;20396;-80
2021/07/07 08:21:32;;;;;;;8.65;5.05;;;8.90;99.90;;;;;;5054301;28;20390;-80
2021/07/07 08:24:02;;;;;;;10.25;5.97;;;8.90;99.90;;;;;;5052772;28;21001;-81
2021/07/07 08:26:30;;;;;;;9.50;6.70;;;8.90;99.90;;;;;;5052818;28;20383;-80
2021/07/07 08:28:58;;;;;;;9.82;5.47;;;8.90;99.90;;;;;;5052639;28;20387;-80
2021/07/07 08:31:26;;;;;;;6.20;3.80;;;8.80;99.90;;;;;;5060980;28;20405;-80
2021/07/07 08:33:55;;;;;;;6.32;4.30;;;8.80;99.90;;;;;;5064753;28;20483;-80
2021/07/07 08:36:25;;;;;;;4.32;3.08;;;8.80;99.90;;;;;;5053418;28;20498;-81
2021/07/07 08:38:54;;;;;;;4.82;3.25;;;8.70;99.90;;;;;;5052074;28;20402;-81
2021/07/07 08:41:22;;;;;;;4.47;2.60;;;8.70;99.90;;;;;;5052809;28;20816;-80
2021/07/07 08:43:50;;;;;;;2.92;2.42;;;8.80;99.90;;;;;;5053143;28;20403;-81
2021/07/07 08:46:22;;;;;;;4.38;2.60;;;8.80;99.90;;;;;;5061375;28;20388;-80
2021/07/07 08:48:49;;;;;;;6.95;2.95;;;8.80;99.90;;;;;;5053991;28;20738;-80
2021/07/07 08:51:17;;;;;;;8.93;6.93;;;8.80;99.90;;;;;;5052253;28;20485;-80
2021/07/07 08:53:45;;;;;;;20.75;17.90;;;8.80;99.90;;;;;;5062350;28;20426;-80
2021/07/07 08:56:12;;;;;;;24.23;19.50;;;8.70;99.90;;;;;;5062733;28;20907;-80
2021/07/07 08:58:40;;;;;;;17.73;13.60;;;8.60;99.90;;;;;;5052028;28;20395;-81
2021/07/07 09:01:07;;;;;;;15.52;10.18;;;8.60;99.90;;;;;;5052700;28;20398;-80
2021/07/07 09:03:34;;;;;;;7.32;6.20;;;8.50;99.90;;;;;;5052025;28;20411;-81
2021/07/07 09:06:04;;;;;;;8.13;6.20;;;8.50;99.90;;;;;;5052388;28;20382;-81
2021/07/07 09:08:41;;;;;;;10.32;7.18;;;8.40;99.90;;;;;;5052084;28;20387;-81
2021/07/07 09:11:29;;;;;;;8.30;5.38;;;8.30;99.90;;;;;;5053933;28;20444;-81
2021/07/07 09:14:14;;;;;;;5.97;3.85;;;8.30;99.90;;;;;;5054600;28;20769;-80
2021/07/07 09:17:02;;;;;;;5.68;3.70;;;8.20;99.90;;;;;;5056735;28;20404;-80
2021/07/07 09:19:33;;;;;;;5.60;3.30;;;8.10;99.90;;;;;;5057396;28;20889;-80
2021/07/07 09:22:04;;;;;;;4.95;3.65;;;8.10;99.90;;;;;;5053382;28;20399;-79
2021/07/07 09:24:32;;;;;;;6.35;4.30;;;8.10;99.90;;;;;;5062142;28;20738;-80
2021/07/07 09:27:05;;;;;;;12.43;8.43;;;8.10;99.90;;;;;;5051519;28;20384;-81
2021/07/07 09:29:37;;;;;;;9.10;6.90;;;8.00;99.90;;;;;;5060320;28;20498;-80
2021/07/07 09:32:20;;;;;;;11.70;8.15;;;8.00;99.90;;;;;;5053471;28;20398;-81
2021/07/07 09:34:51;;;;;;;10.57;7.97;;;8.00;99.90;;;;;;5055574;28;20399;-81
2021/07/07 09:37:23;;;;;;;12.77;9.60;;;8.10;99.90;;;;;;5060326;28;20439;-81
2021/07/07 09:39:51;;;;;;;9.80;7.78;;;8.10;99.90;;;;;;5071388;28;20473;-81
2021/07/07 09:42:29;;;;;;;8.70;7.50;;;8.10;99.90;;;;;;5070911;28;20398;-80
2021/07/07 09:44:59;;;;;;;9.68;7.18;;;8.10;99.90;;;;;;5057477;28;20434;-80
2021/07/07 09:47:27;;;;;;;10.20;9.23;;;8.10;99.90;;;;;;5063707;28;20489;-81
2021/07/07 09:49:55;;;;;;;9.93;8.98;;;8.10;99.90;;;;;;5064138;28;20386;-80
2021/07/07 09:52:28;;;;;;;13.15;11.52;;;8.10;99.90;;;;;;5063423;28;20379;-81
2021/07/07 09:54:56;;;;;;;12.38;10.35;;;8.10;99.90;;;;;;5050831;28;20491;-81
2021/07/07 09:57:24;;;;;;;13.45;11.68;;;8.10;99.90;;;;;;5053980;28;20385;-79
2021/07/07 09:59:51;;;;;;;18.58;15.45;;;8.00;99.90;;;;;;5069484;28;20393;-80
2021/07/07 10:02:19;;;;;;;15.30;13.45;;;8.00;99.90;;;;;;5051635;28;20467;-80
2021/07/07 10:04:46;;;;;;;18.40;15.88;;;8.00;99.90;;;;;;5062728;28;20403;-79
2021/07/07 10:07:14;;;;;;;17.65;14.65;;;7.90;99.90;;;;;;5068085;28;20445;-80
2021/07/07 10:09:45;;;;;;;13.27;11.97;;;7.90;99.90;;;;;;5070153;28;20398;-79
2021/07/07 10:12:12;;;;;;;15.32;11.27;;;8.00;99.90;;;;;;5063210;28;20387;-78
2021/07/07 10:14:40;;;;;;;8.90;7.77;;;8.10;99.90;;;;;;5060481;28;20390;-79
2021/07/07 10:17:07;;;;;;;7.22;6.40;;;8.10;99.90;;;;;;5047291;28;20434;-79
2021/07/07 10:19:35;;;;;;;5.70;4.93;;;8.10;99.90;;;;;;5047572;28;20431;-79
2021/07/07 10:22:02;;;;;;;12.50;9.10;;;8.10;99.90;;;;;;5047275;28;20487;-80
2021/07/07 10:24:31;;;;;;;5.90;4.30;;;8.10;99.90;;;;;;5058526;28;20403;-80
2021/07/07 10:27:01;;;;;;;10.18;7.50;;;8.10;99.90;;;;;;5085325;28;20376;-79
2021/07/07 10:29:29;;;;;;;5.72;3.88;;;8.20;99.90;;;;;;5051074;28;20727;-80
2021/07/07 10:32:01;;;;;;;7.82;5.55;;;8.10;99.90;;;;;;5046269;28;20387;-80
2021/07/07 10:34:30;;;;;;;5.03;3.95;;;8.10;99.90;;;;;;5047613;28;20764;-79
2021/07/07 10:36:59;;;;;;;4.60;3.67;;;8.10;99.90;;;;;;5047708;28;20785;-79
2021/07/07 10:39:26;;;;;;;7.38;3.72;;;8.10;99.90;;;;;;5061967;28;20393;-80
2021/07/07 10:42:04;;;;;;;5.15;3.40;;;8.10;99.90;;;;;;5054254;28;20391;-79
2021/07/07 10:44:41;;;;;;;5.60;3.10;;;8.10;99.90;;;;;;5047541;28;20399;-79
2021/07/07 10:47:13;;;;;;;3.85;3.03;;;8.00;99.90;;;;;;5047531;28;20395;-80
2021/07/07 10:49:40;;;;;;;4.65;2.88;;;7.90;99.90;;;;;;5046759;28;20455;-80
2021/07/07 10:52:10;;;;;;;4.45;3.10;;;7.90;99.90;;;;;;5052775;28;20402;-80
2021/07/07 10:54:40;;;;;;;4.55;2.88;;;7.90;99.90;;;;;;5053463;28;20378;-81
2021/07/07 10:57:10;;;;;;;5.10;2.60;;;7.80;99.90;;;;;;5046285;28;20388;-80
2021/07/07 10:59:46;;;;;;;3.88;3.20;;;7.70;99.90;;;;;;5046556;28;20394;-80
2021/07/07 11:02:24;;;;;;;4.72;2.78;;;7.70;99.90;;;;;;5046939;28;20467;-80
2021/07/07 11:04:53;;;;;;;3.63;2.90;;;7.60;99.90;;;;;;5046244;28;20404;-80
2021/07/07 11:07:39;;;;;;;5.88;2.67;;;7.50;99.90;;;;;;5047035;28;20403;-80
2021/07/07 11:10:13;;;;;;;6.38;3.15;;;7.50;99.90;;;;;;5059513;28;20451;-80
2021/07/07 11:12:41;;;;;;;8.20;3.70;;;7.50;99.90;;;;;;5052546;28;20382;-80
2021/07/07 11:15:18;;;;;;;3.92;3.03;;;7.40;99.90;;;;;;5058684;28;20457;-81
2021/07/07 11:17:58;;;;;;;5.07;3.58;;;7.30;99.90;;;;;;5054832;28;20388;-80
2021/07/07 11:20:31;;;;;;;4.97;3.80;;;7.30;99.90;;;;;;5077227;28;20874;-80
2021/07/07 11:23:06;;;;;;;7.65;4.75;;;7.30;99.90;;;;;;5052108;28;20403;-81
2021/07/07 11:25:35;;;;;;;7.40;3.97;;;7.30;99.90;;;;;;5047113;28;20407;-80
2021/07/07 11:28:07;;;;;;;7.23;3.70;;;7.30;99.90;;;;;;5050322;28;20389;-81
2021/07/07 11:30:35;;;;;;;5.47;4.10;;;7.40;99.90;;;;;;5057674;28;20457;-79
2021/07/07 11:33:06;;;;;;;5.93;4.30;;;7.40;99.90;;;;;;5076477;28;20397;-80
2021/07/07 11:35:51;;;;;;;6.35;4.15;;;7.30;99.90;;;;;;5063929;28;20381;-80
2021/07/07 11:38:27;;;;;;;5.15;3.63;;;7.30;99.90;;;;;;5056928;28;20395;-80
2021/07/07 11:40:56;;;;;;;6.25;4.22;;;7.30;99.90;;;;;;5046199;28;20998;-79
2021/07/07 11:43:30;;;;;;;4.95;4.05;;;7.30;99.90;;;;;;5045726;28;20560;-80
2021/07/07 11:45:57;;;;;;;5.43;3.60;;;7.20;99.90;;;;;;5046062;28;20387;-80
2021/07/07 11:51:03;;;;;;;5.72;3.00;;;7.10;99.90;;;;;;5058682;28;20784;-80
2021/07/07 11:53:42;;;;;;;5.53;3.63;;;7.10;99.90;;;;;;5063555;28;20998;-80
2021/07/07 11:56:09;;;;;;;5.53;4.20;;;7.10;99.90;;;;;;5050279;28;20383;-80
2021/07/07 11:58:45;;;;;;;7.32;3.90;;;7.10;99.90;;;;;;5060256;28;20485;-80
2021/07/07 12:01:24;;;;;;;5.18;3.78;;;7.00;99.90;;;;;;5061549;28;20778;-80
2021/07/07 12:04:01;;;;;;;5.15;3.83;;;7.10;99.90;;;;;;5046639;28;20416;-79
2021/07/07 12:06:36;;;;;;;4.90;3.60;;;7.10;99.90;;;;;;5057965;28;20880;-79
2021/07/07 12:09:18;;;;;;;7.63;4.75;;;7.10;99.90;;;;;;5058293;28;20787;-79
2021/07/07 12:11:56;;;;;;;10.55;8.95;;;7.10;99.90;;;;;;5064352;28;20427;-79
2021/07/07 12:14:26;;;;;;;8.27;6.80;;;7.20;99.90;;;;;;5054456;28;20932;-78
2021/07/07 12:16:55;;;;;;;8.07;5.80;;;7.30;99.90;;;;;;5048571;28;20989;-78
2021/07/07 12:19:22;;;;;;;4.22;3.83;;;7.30;99.90;;;;;;5061648;28;20959;-78
2021/07/07 12:22:01;;;;;;;6.78;3.78;;;7.40;99.90;;;;;;5048814;28;20577;-79
2021/07/07 12:24:44;;;;;;;4.57;3.40;;;7.40;99.90;;;;;;5048478;28;20410;-79
2021/07/07 12:27:14;;;;;;;4.27;3.10;;;7.40;99.90;;;;;;5057808;28;20989;-80
2021/07/07 12:29:46;;;;;;;8.02;4.18;;;7.50;99.90;;;;;;5065757;28;20527;-80
2021/07/07 12:32:27;;;;;;;5.93;4.60;;;7.40;99.90;;;;;;5048788;28;20762;-80
2021/07/07 12:34:58;;;;;;;4.82;4.32;;;7.30;99.90;;;;;;5063755;28;20393;-79
2021/07/07 12:37:26;;;;;;;6.25;4.68;;;7.30;99.90;;;;;;5049867;28;20379;-79
2021/07/07 12:40:08;;;;;;;5.78;4.90;;;7.20;99.90;;;;;;5065634;28;20390;-80
2021/07/07 12:42:39;;;;;;;5.47;4.75;;;7.10;99.90;;;;;;5050839;28;20430;-79
2021/07/07 12:45:17;;;;;;;6.68;4.90;;;7.00;99.90;;;;;;5069114;28;20447;-79
2021/07/07 12:47:48;;;;;;;7.70;6.93;;;7.00;99.90;;;;;;5071290;28;20749;-79
2021/07/07 12:50:24;;;;;;;8.80;5.30;;;7.00;99.90;;;;;;5056937;28;20494;-80
2021/07/07 12:52:51;;;;;;;7.25;6.25;;;7.00;99.90;;;;;;5052467;28;20851;-79
2021/07/07 12:55:24;;;;;;;6.97;5.40;;;6.90;99.90;;;;;;5065582;28;20394;-80
2021/07/07 12:58:01;;;;;;;5.72;5.05;;;6.80;99.90;;;;;;5066157;28;20484;-79
2021/07/07 13:00:34;;;;;;;8.55;4.95;;;6.80;99.90;;;;;;5066287;28;20813;-79
2021/07/07 13:03:05;;;;;;;8.27;5.03;;;6.90;99.90;;;;;;5053043;28;20908;-79
2021/07/07 13:05:54;;;;;;;6.00;5.32;;;6.90;99.90;;;;;;5055947;28;20382;-80